METAR Data
IDs: Format: Raw Decoded Include TAF

Data at: 1408 UTC 10 Aug 2022

KHJO 101353Z AUTO 31007KT 10SM CLR 19/13 A3003 RMK AO2 SLP169 T01890128
KHJO 101253Z AUTO 31005KT 10SM CLR 19/13 A3001 RMK AO2 SLP161 T01890128
KHJO 101153Z AUTO 33010KT 10SM CLR 20/12 A2999 RMK AO2 SLP155 T02000117 10272 20200 53013
KHJO 101053Z AUTO 33010KT 10SM CLR 21/12 A2998 RMK AO2 SLP150 T02060122
KHJO 100953Z AUTO 32011KT 10SM CLR 21/13 A2996 RMK AO2 SLP146 T02110128
KHJO 100853Z AUTO 33011KT 10SM CLR 22/13 A2995 RMK AO2 SLP142 T02220128 53010
KHJO 100753Z AUTO 32012KT 10SM CLR 24/13 A2994 RMK AO2 SLP138 T02390128 403720211
KHJO 100653Z AUTO 31014KT 10SM CLR 26/13 A2993 RMK AO2 SLP136 T02560128
KHJO 100553Z AUTO 31015KT 10SM CLR 27/14 A2992 RMK AO2 SLP132 T02720139 10372 20272 51020
KHJO 100453Z AUTO 31009KT 10SM CLR 29/14 A2991 RMK AO2 SLP128 T02940139
KHJO 100353Z AUTO 32010KT 10SM CLR 31/14 A2989 RMK AO2 SLP120 T03060144
KHJO 100253Z AUTO 32011KT 10SM CLR 33/14 A2986 RMK AO2 SLP112 T03280139 53006
KHJO 100153Z AUTO 34006KT 10SM CLR 36/11 A2984 RMK AO2 SLP105 T03610111
KHJO 100053Z AUTO VRB06KT 10SM CLR 37/12 A2984 RMK AO2 SLP104 T03670117
KHJO 092353Z AUTO 02004KT 10SM CLR 37/12 A2985 RMK AO2 SLP106 T03670122 10372 20289 56022
KHJO 092253Z AUTO VRB04KT 10SM CLR 37/13 A2986 RMK AO2 SLP112 T03670133
KHJO 092153Z AUTO VRB03KT 10SM CLR 35/12 A2989 RMK AO2 SLP121 T03500117
KHJO 092053Z AUTO VRB03KT 10SM CLR 34/13 A2991 RMK AO2 SLP128 T03390128 58018
KHJO 091953Z AUTO 31003KT 10SM CLR 32/11 A2993 RMK AO2 SLP135 T03170106
KHJO 091853Z AUTO 32006KT 10SM CLR 31/11 A2995 RMK AO2 SLP140 T03110111
KHJO 091753Z AUTO 31006KT 10SM CLR 29/11 A2996 RMK AO2 SLP146 T02890106 10294 20211 51010
KHJO 091653Z AUTO 30007KT 7SM CLR 28/11 A2996 RMK AO2 SLP145 T02780106
KHJO 091636Z AUTO 32006KT 4SM HZ FEW003 27/11 A2996 RMK AO2 T02720106
KHJO 091553Z AUTO 31008KT 10SM CLR 25/11 A2995 RMK AO2 SLP142 T02500111
KHJO 091514Z AUTO 32007KT 5SM HZ FEW003 23/12 A2994 RMK AO2 T02330117
KHJO 091453Z AUTO 31009KT 10SM CLR 23/12 A2993 RMK AO2 SLP136 T02280117 51012
KHJO 091353Z AUTO 32008KT 10SM CLR 21/12 A2993 RMK AO2 SLP134 T02110122
KHJO 091253Z AUTO 31008KT 10SM CLR 21/13 A2991 RMK AO2 SLP126 T02110128
KHJO 091153Z AUTO 31005KT 10SM CLR 22/12 A2990 RMK AO2 SLP124 T02170122 10283 20217 53003
KHJO 091053Z AUTO 33007KT 10SM CLR 22/13 A2988 RMK AO2 SLP119 T02220128
KHJO 090953Z AUTO 32008KT 10SM CLR 23/13 A2988 RMK AO2 SLP117 T02330128
KHJO 090853Z AUTO 33010KT 10SM CLR 24/13 A2989 RMK AO2 SLP120 T02440133 58001
KHJO 090753Z AUTO 32010KT 10SM CLR 26/14 A2990 RMK AO2 SLP123 T02560144 403670206
KHJO 090653Z AUTO 32008KT 10SM CLR 27/13 A2989 RMK AO2 SLP122 T02670133
KHJO 090553Z AUTO 33007KT 10SM CLR 28/13 A2989 RMK AO2 SLP121 T02830133 10367 20283 51015
KHJO 090453Z AUTO 31009KT 10SM CLR 30/12 A2988 RMK AO2 SLP118 T03000122
KHJO 090353Z AUTO 31009KT 10SM CLR 32/13 A2986 RMK AO2 SLP112 T03170128
KHJO 090253Z AUTO 31009KT 10SM CLR 33/13 A2985 RMK AO2 SLP107 T03280133 53002